createdAt,value
2019-03-05T00:01:17.842Z,8.10
2019-03-05T00:03:51.181Z,8.10
2019-03-05T00:06:24.446Z,8.20
2019-03-05T00:08:57.788Z,8.20
2019-03-05T00:11:31.157Z,8.20
2019-03-05T00:14:04.575Z,8.30
2019-03-05T00:16:37.873Z,8.30
2019-03-05T00:19:11.112Z,8.30
2019-03-05T00:21:44.474Z,8.30
2019-03-05T00:25:13.186Z,8.30
2019-03-05T00:27:50.778Z,8.30
2019-03-05T00:30:50.731Z,8.40
2019-03-05T00:33:46.397Z,8.40
2019-03-05T00:36:39.577Z,8.40
2019-03-05T00:39:50.466Z,8.50
2019-03-05T00:43:02.888Z,8.50
2019-03-05T00:46:04.738Z,8.50
2019-03-05T00:51:30.102Z,8.50
2019-03-05T00:52:37.146Z,8.50
2019-03-05T00:55:26.453Z,8.50
2019-03-05T00:58:15.886Z,8.40
2019-03-05T01:01:05.337Z,8.50
2019-03-05T01:04:11.455Z,8.50
2019-03-05T01:09:52.502Z,8.50
2019-03-05T01:12:26.657Z,8.50
2019-03-05T01:15:00.356Z,8.60
2019-03-05T01:17:33.626Z,8.50
2019-03-05T01:20:10.996Z,8.40
2019-03-05T01:22:45.245Z,7.80
2019-03-05T01:25:33.474Z,7.60
2019-03-05T01:28:08.977Z,7.40
2019-03-05T01:31:02.947Z,7.20
2019-03-05T01:33:40.546Z,7.10
2019-03-05T01:39:32.498Z,6.90
2019-03-05T01:42:07.478Z,6.70
2019-03-05T01:44:40.741Z,6.50
2019-03-05T01:47:14.083Z,6.50
2019-03-05T01:49:47.377Z,6.50
2019-03-05T01:52:20.607Z,6.50
2019-03-05T01:54:53.963Z,6.40
2019-03-05T01:57:27.185Z,6.40
2019-03-05T02:00:00.516Z,6.40
2019-03-05T02:02:52.359Z,6.50
2019-03-05T02:05:25.835Z,6.40
2019-03-05T02:08:00.288Z,6.40
2019-03-05T02:10:33.574Z,6.40
2019-03-05T02:13:06.803Z,6.40
2019-03-05T02:18:36.013Z,6.30
2019-03-05T02:21:09.291Z,6.30
2019-03-05T02:23:58.560Z,6.20
2019-03-05T02:27:06.203Z,6.20
2019-03-05T02:29:58.957Z,6.20
2019-03-05T02:32:48.235Z,6.10
2019-03-05T02:35:37.673Z,6.10
2019-03-05T02:38:17.943Z,6.10
2019-03-05T02:41:10.475Z,6.10
2019-03-05T02:44:05.711Z,6.10
2019-03-05T02:47:08.059Z,6.20
2019-03-05T02:50:32.904Z,6.10
2019-03-05T02:53:31.145Z,6.00
2019-03-05T02:56:26.782Z,6.10
2019-03-05T02:58:58.580Z,6.10
2019-03-05T03:01:36.411Z,6.00
2019-03-05T03:04:11.248Z,6.10
2019-03-05T03:06:46.025Z,6.10
2019-03-05T03:09:35.744Z,6.10
2019-03-05T03:12:09.124Z,6.10
2019-03-05T03:14:42.413Z,6.00
2019-03-05T03:17:16.682Z,6.10
2019-03-05T03:19:50.119Z,6.10
2019-03-05T03:22:23.346Z,6.10
2019-03-05T03:24:56.758Z,6.10
2019-03-05T03:27:30.107Z,6.10
2019-03-05T03:30:03.406Z,6.10
2019-03-05T03:32:38.016Z,6.10
2019-03-05T03:35:14.381Z,6.10
2019-03-05T03:37:49.894Z,6.20
2019-03-05T03:40:23.288Z,6.10
2019-03-05T03:42:57.216Z,6.10
2019-03-05T03:45:30.510Z,6.10
2019-03-05T03:48:03.729Z,6.10
2019-03-05T03:50:37.008Z,6.10
2019-03-05T03:53:10.223Z,6.10
2019-03-05T03:55:43.608Z,6.10
2019-03-05T03:58:16.841Z,6.20
2019-03-05T04:00:50.113Z,6.20
2019-03-05T04:03:23.430Z,6.20
2019-03-05T04:05:56.773Z,6.20
2019-03-05T04:08:31.309Z,6.20
2019-03-05T04:11:05.895Z,6.20
2019-03-05T04:13:39.147Z,6.20
2019-03-05T04:16:18.058Z,6.20
2019-03-05T04:18:51.373Z,6.20
2019-03-05T04:21:24.743Z,6.20
2019-03-05T04:23:57.987Z,6.30
2019-03-05T04:26:44.453Z,6.20
2019-03-05T04:29:17.783Z,6.30
2019-03-05T04:31:51.095Z,6.20
2019-03-05T04:34:24.324Z,6.20
2019-03-05T04:37:14.030Z,6.20
2019-03-05T04:39:49.905Z,6.20
2019-03-05T04:42:22.204Z,6.20
2019-03-05T04:44:59.218Z,6.20
2019-03-05T04:47:32.485Z,6.20
2019-03-05T04:50:14.813Z,6.20
2019-03-05T04:52:48.191Z,6.10
2019-03-05T04:55:21.537Z,6.10
2019-03-05T04:57:54.816Z,6.00
2019-03-05T05:00:29.336Z,6.00
2019-03-05T05:03:02.739Z,5.90
2019-03-05T05:05:38.648Z,5.80
2019-03-05T05:08:11.921Z,5.80
2019-03-05T05:10:47.046Z,5.70
2019-03-05T05:13:20.247Z,5.70
2019-03-05T05:15:53.622Z,5.60
2019-03-05T05:18:26.887Z,5.50
2019-03-05T05:21:00.241Z,5.50
2019-03-05T05:23:33.504Z,5.40
2019-03-05T05:26:06.738Z,5.30
2019-03-05T05:28:40.002Z,5.30
2019-03-05T05:31:13.239Z,5.30
2019-03-05T05:33:46.646Z,5.30
2019-03-05T05:36:20.022Z,5.20
2019-03-05T05:38:53.384Z,5.20
2019-03-05T05:41:26.655Z,5.20
2019-03-05T05:44:00.019Z,5.20
2019-03-05T05:46:33.356Z,5.20
2019-03-05T05:49:06.654Z,5.30
2019-03-05T05:51:39.896Z,5.30
2019-03-05T05:54:13.266Z,5.30
2019-03-05T05:56:46.622Z,5.30
2019-03-05T05:59:19.904Z,5.30
2019-03-05T06:01:53.135Z,5.30
2019-03-05T06:04:26.436Z,5.40
2019-03-05T06:06:59.777Z,5.40
2019-03-05T06:09:33.095Z,5.50
2019-03-05T06:12:06.323Z,5.50
2019-03-05T06:14:39.545Z,5.50
2019-03-05T06:17:12.948Z,5.50
2019-03-05T06:19:46.202Z,5.50
2019-03-05T06:22:19.566Z,5.50
2019-03-05T06:24:52.903Z,5.60
2019-03-05T06:27:26.278Z,5.50
2019-03-05T06:29:59.640Z,5.50
2019-03-05T06:32:33.593Z,5.60
2019-03-05T06:35:08.873Z,5.60
2019-03-05T06:37:42.087Z,5.50
2019-03-05T06:40:32.622Z,5.50
2019-03-05T06:43:06.085Z,5.50
2019-03-05T06:45:39.570Z,5.50
2019-03-05T06:48:13.106Z,5.50
2019-03-05T06:50:46.763Z,5.50
2019-03-05T06:56:20.092Z,5.50
2019-03-05T06:58:59.655Z,5.50
2019-03-05T07:01:33.198Z,5.50
2019-03-05T07:04:06.909Z,5.50
2019-03-05T07:06:52.945Z,5.40
2019-03-05T07:12:48.942Z,5.60
2019-03-05T07:15:47.986Z,5.70
2019-03-05T07:18:32.330Z,5.80
2019-03-05T07:21:41.641Z,5.90
2019-03-05T07:24:41.841Z,6.10
2019-03-05T07:27:21.901Z,6.40
2019-03-05T07:29:58.427Z,6.50
2019-03-05T07:32:32.003Z,6.60
2019-03-05T07:35:07.673Z,6.70
2019-03-05T07:37:41.500Z,6.80
2019-03-05T07:40:14.996Z,7.00
2019-03-05T07:42:48.463Z,7.00
2019-03-05T07:45:22.334Z,7.00
2019-03-05T07:47:56.984Z,7.00
2019-03-05T07:50:30.289Z,6.90
2019-03-05T07:53:03.841Z,6.80
2019-03-05T07:55:37.238Z,7.00
2019-03-05T07:58:10.713Z,7.10
2019-03-05T08:00:44.122Z,7.30
2019-03-05T08:03:17.614Z,7.40
2019-03-05T08:05:51.092Z,7.50
2019-03-05T08:09:25.702Z,7.80
2019-03-05T08:12:22.904Z,7.80
2019-03-05T08:15:04.116Z,7.70
2019-03-05T08:17:37.734Z,7.50
2019-03-05T08:20:13.313Z,7.50
2019-03-05T08:22:48.001Z,7.50
2019-03-05T08:25:21.583Z,7.40
2019-03-05T08:27:55.096Z,7.40
2019-03-05T08:30:28.589Z,7.40
2019-03-05T08:33:02.171Z,7.60
2019-03-05T08:35:35.541Z,7.50
2019-03-05T08:38:09.036Z,7.40
2019-03-05T08:40:43.663Z,7.40
2019-03-05T08:43:17.154Z,7.50
2019-03-05T08:45:50.628Z,7.60
2019-03-05T08:48:24.259Z,7.90
2019-03-05T08:50:58.925Z,7.90
2019-03-05T08:53:32.391Z,7.80
2019-03-05T08:56:06.712Z,7.90
2019-03-05T08:58:40.125Z,8.10
2019-03-05T09:01:13.763Z,8.20
2019-03-05T09:03:47.265Z,8.20
2019-03-05T09:06:20.695Z,8.30
2019-03-05T09:08:54.181Z,8.20
2019-03-05T09:11:27.833Z,8.20
2019-03-05T09:14:01.520Z,8.40
2019-03-05T09:16:34.894Z,8.40
2019-03-05T09:19:08.344Z,8.40
2019-03-05T09:21:42.937Z,8.40
2019-03-05T09:24:16.242Z,8.40
2019-03-05T09:26:51.485Z,8.40
2019-03-05T09:29:24.818Z,8.30
2019-03-05T09:31:58.334Z,8.20
2019-03-05T09:34:31.783Z,8.20
2019-03-05T09:37:05.612Z,8.20
2019-03-05T09:39:39.105Z,8.30
2019-03-05T09:42:12.584Z,8.30
2019-03-05T09:44:45.980Z,8.20
2019-03-05T09:47:19.410Z,8.20
2019-03-05T09:49:53.883Z,8.20
2019-03-05T09:52:27.350Z,8.10
2019-03-05T09:55:00.774Z,8.10
2019-03-05T09:57:35.557Z,8.40
2019-03-05T10:00:18.988Z,8.40
2019-03-05T10:02:52.558Z,8.50
2019-03-05T10:05:26.133Z,8.30
2019-03-05T10:07:59.782Z,8.20
2019-03-05T10:10:33.977Z,8.10
2019-03-05T10:13:07.834Z,8.20
2019-03-05T10:15:41.432Z,8.10
2019-03-05T10:18:14.925Z,8.20
2019-03-05T10:20:49.571Z,8.20
2019-03-05T10:23:23.017Z,8.20
2019-03-05T10:25:56.733Z,8.10
2019-03-05T10:28:30.623Z,8.20
2019-03-05T10:31:04.401Z,8.20
2019-03-05T10:33:37.679Z,8.20
2019-03-05T10:36:12.784Z,8.20
2019-03-05T10:38:57.371Z,8.20
2019-03-05T10:41:31.393Z,8.20
2019-03-05T10:44:04.765Z,8.20
2019-03-05T10:46:38.010Z,8.30
2019-03-05T10:49:11.473Z,8.40
2019-03-05T10:51:44.759Z,8.40
2019-03-05T10:54:18.164Z,8.60
2019-03-05T10:56:51.439Z,8.70
2019-03-05T10:59:24.716Z,8.50
2019-03-05T11:01:58.158Z,8.50
2019-03-05T11:04:32.516Z,8.60
2019-03-05T11:07:05.799Z,8.80
2019-03-05T11:09:39.086Z,8.90
2019-03-05T11:12:12.675Z,9.10
2019-03-05T11:14:46.658Z,9.10
2019-03-05T11:17:20.039Z,9.30
2019-03-05T11:19:53.296Z,9.10
2019-03-05T11:22:29.602Z,8.70
2019-03-05T11:25:02.968Z,7.50
2019-03-05T11:27:38.037Z,5.40
2019-03-05T11:30:20.977Z,3.90
2019-03-05T11:32:54.325Z,3.80
2019-03-05T11:35:32.690Z,3.60
2019-03-05T11:38:06.644Z,3.50
2019-03-05T11:40:40.004Z,3.40
2019-03-05T11:43:16.169Z,3.40
2019-03-05T11:45:49.423Z,3.40
2019-03-05T11:48:22.667Z,3.50
2019-03-05T11:50:55.984Z,3.30
2019-03-05T11:53:29.292Z,3.40
2019-03-05T11:56:02.687Z,3.40
2019-03-05T11:58:36.069Z,3.60
2019-03-05T12:01:11.408Z,3.70
2019-03-05T12:03:44.696Z,3.70
2019-03-05T12:06:18.095Z,3.70
2019-03-05T12:08:51.420Z,3.90
2019-03-05T12:11:24.801Z,4.10
2019-03-05T12:13:58.049Z,4.40
2019-03-05T12:16:32.650Z,4.80
2019-03-05T12:19:06.138Z,5.10
2019-03-05T12:21:39.446Z,5.00
2019-03-05T12:24:13.973Z,5.00
2019-03-05T12:26:47.350Z,5.10
2019-03-05T12:29:20.596Z,5.00
2019-03-05T12:31:53.904Z,5.00
2019-03-05T12:34:27.159Z,5.10
2019-03-05T12:37:00.485Z,5.20
2019-03-05T12:39:33.896Z,5.40
2019-03-05T12:42:09.921Z,5.50
2019-03-05T12:44:43.462Z,5.60
2019-03-05T12:47:16.800Z,5.70
2019-03-05T12:49:50.186Z,5.70
2019-03-05T12:52:23.487Z,5.90
2019-03-05T12:54:56.705Z,5.90
2019-03-05T12:57:30.010Z,6.10
2019-03-05T13:00:05.245Z,6.30
2019-03-05T13:02:41.634Z,6.60
2019-03-05T13:05:17.788Z,7.00
2019-03-05T13:07:52.516Z,7.00
2019-03-05T13:10:37.618Z,7.00
2019-03-05T13:13:13.935Z,7.10
2019-03-05T13:15:46.055Z,6.80
2019-03-05T13:18:19.225Z,6.40
2019-03-05T13:20:52.657Z,6.10
2019-03-05T13:23:26.077Z,5.90
2019-03-05T13:26:03.138Z,5.80
2019-03-05T13:28:36.724Z,5.80
2019-03-05T13:31:09.365Z,5.80
2019-03-05T13:33:42.735Z,5.70
2019-03-05T13:36:16.832Z,5.70
2019-03-05T13:38:50.303Z,5.90
2019-03-05T13:41:23.725Z,6.20
2019-03-05T13:43:57.159Z,6.40
2019-03-05T13:46:30.966Z,6.60
2019-03-05T13:49:43.562Z,6.80
2019-03-05T13:53:01.546Z,6.90
2019-03-05T13:56:25.689Z,7.00
2019-03-05T13:59:25.927Z,6.80
2019-03-05T14:01:59.197Z,6.80
2019-03-05T14:04:45.026Z,6.70
2019-03-05T14:07:58.184Z,6.30
2019-03-05T14:10:31.931Z,5.80
2019-03-05T14:13:06.718Z,5.50
2019-03-05T14:15:41.856Z,5.40
2019-03-05T14:18:15.232Z,5.50
2019-03-05T14:20:48.532Z,5.60
2019-03-05T14:23:21.882Z,5.80
2019-03-05T14:25:56.035Z,6.00
2019-03-05T14:28:29.392Z,6.20
2019-03-05T14:31:02.640Z,6.40
2019-03-05T14:33:36.177Z,6.70
2019-03-05T14:36:09.661Z,6.90
2019-03-05T14:38:43.165Z,7.00
2019-03-05T14:41:17.353Z,7.10
2019-03-05T14:43:50.851Z,7.20
2019-03-05T14:46:24.858Z,7.20
2019-03-05T14:48:58.478Z,7.10
2019-03-05T14:51:32.517Z,6.90
2019-03-05T14:54:05.881Z,6.70
2019-03-05T14:56:39.220Z,6.60
2019-03-05T14:59:12.539Z,6.60
2019-03-05T15:01:46.210Z,6.50
2019-03-05T15:04:19.770Z,6.50
2019-03-05T15:06:53.186Z,6.20
2019-03-05T15:09:26.502Z,6.10
2019-03-05T15:11:59.792Z,6.00
2019-03-05T15:14:33.181Z,5.80
2019-03-05T15:17:06.819Z,5.70
2019-03-05T15:19:40.226Z,5.70
2019-03-05T15:22:13.738Z,5.70
2019-03-05T15:24:47.172Z,5.60
2019-03-05T15:27:21.481Z,5.60
2019-03-05T15:29:55.534Z,5.50
2019-03-05T15:32:28.930Z,5.40
2019-03-05T15:35:02.313Z,5.40
2019-03-05T15:37:35.679Z,5.30
2019-03-05T15:40:13.100Z,5.20
2019-03-05T15:42:46.473Z,5.20
2019-03-05T15:45:24.118Z,5.20
2019-03-05T15:47:57.415Z,5.20
2019-03-05T15:50:33.766Z,5.30
2019-03-05T15:53:07.503Z,5.20
2019-03-05T15:55:40.796Z,5.20
2019-03-05T15:58:14.235Z,5.20
2019-03-05T16:00:47.565Z,5.20
2019-03-05T16:03:20.879Z,5.20
2019-03-05T16:05:57.819Z,5.10
2019-03-05T16:08:29.003Z,5.10
2019-03-05T16:11:02.325Z,5.10
2019-03-05T16:13:35.800Z,5.10
2019-03-05T16:16:09.080Z,5.00
2019-03-05T16:18:43.658Z,5.10
2019-03-05T16:21:17.078Z,5.10
2019-03-05T16:23:50.427Z,5.10
2019-03-05T16:26:24.738Z,5.10
2019-03-05T16:28:58.217Z,5.10
2019-03-05T16:31:37.605Z,5.00
2019-03-05T16:34:18.451Z,5.00
2019-03-05T16:36:53.302Z,5.00
2019-03-05T16:39:32.989Z,5.00
2019-03-05T16:42:14.089Z,5.00
2019-03-05T16:44:52.529Z,4.90
2019-03-05T16:47:37.307Z,4.90
2019-03-05T16:50:17.130Z,4.90
2019-03-05T16:53:08.209Z,4.90
2019-03-05T16:55:49.132Z,5.00
2019-03-05T16:58:29.178Z,5.00
2019-03-05T17:04:05.441Z,5.00
2019-03-05T17:06:55.147Z,5.10
2019-03-05T17:09:46.018Z,5.10
2019-03-05T17:12:27.505Z,5.10
2019-03-05T17:15:04.048Z,5.00
2019-03-05T17:17:43.889Z,5.00
2019-03-05T17:20:21.157Z,5.00
2019-03-05T17:22:55.800Z,5.00
2019-03-05T17:25:33.608Z,4.90
2019-03-05T17:28:15.569Z,5.00
2019-03-05T17:30:52.606Z,4.90
2019-03-05T17:33:29.299Z,5.00
2019-03-05T17:36:07.578Z,4.90
2019-03-05T17:38:43.686Z,4.90
2019-03-05T17:41:22.867Z,5.00
2019-03-05T17:44:01.555Z,5.00
2019-03-05T17:46:41.876Z,5.10
2019-03-05T17:49:21.456Z,5.10
2019-03-05T17:52:02.602Z,5.20
2019-03-05T17:54:41.183Z,5.20
2019-03-05T17:57:19.081Z,5.20
2019-03-05T17:59:52.681Z,5.20
2019-03-05T18:02:26.017Z,5.30
2019-03-05T18:05:06.094Z,5.40
2019-03-05T18:07:40.825Z,5.40
2019-03-05T18:10:14.459Z,5.40
2019-03-05T18:12:49.456Z,5.50
2019-03-05T18:15:22.816Z,5.50
2019-03-05T18:17:56.126Z,5.40
2019-03-05T18:20:29.670Z,5.50
2019-03-05T18:23:03.133Z,5.40
2019-03-05T18:25:38.013Z,5.50
2019-03-05T18:28:11.359Z,5.50
2019-03-05T18:30:45.055Z,5.50
2019-03-05T18:33:18.652Z,5.50
2019-03-05T18:35:52.118Z,5.50
2019-03-05T18:38:25.356Z,5.50
2019-03-05T18:40:58.808Z,5.50
2019-03-05T18:43:32.281Z,5.50
2019-03-05T18:46:05.985Z,5.50
2019-03-05T18:48:39.385Z,5.50
2019-03-05T18:51:13.938Z,5.50
2019-03-05T18:53:47.335Z,5.50
2019-03-05T18:56:20.595Z,5.40
2019-03-05T18:58:55.462Z,5.30
2019-03-05T19:01:28.846Z,5.40
2019-03-05T19:04:02.218Z,5.30
2019-03-05T19:06:35.572Z,5.30
2019-03-05T19:09:08.998Z,5.20
2019-03-05T19:11:43.795Z,5.20
2019-03-05T19:14:16.938Z,5.10
2019-03-05T19:16:50.376Z,5.20
2019-03-05T19:19:24.928Z,5.10
2019-03-05T19:21:58.205Z,5.10
2019-03-05T19:24:31.468Z,5.10
2019-03-05T19:27:05.258Z,5.10
2019-03-05T19:29:38.594Z,5.10
2019-03-05T19:32:11.930Z,5.10
2019-03-05T19:34:47.740Z,5.10
2019-03-05T19:37:22.696Z,5.10
2019-03-05T19:39:56.517Z,5.10
2019-03-05T19:42:29.865Z,5.10
2019-03-05T19:45:03.117Z,5.10
2019-03-05T19:47:36.519Z,5.00
2019-03-05T19:50:19.916Z,5.10
2019-03-05T19:52:53.446Z,5.10
2019-03-05T19:55:29.080Z,5.10
2019-03-05T19:58:08.828Z,5.00
2019-03-05T20:00:53.617Z,5.10
2019-03-05T20:03:27.440Z,5.00
2019-03-05T20:06:00.697Z,4.90
2019-03-05T20:08:39.847Z,4.80
2019-03-05T20:11:09.346Z,4.70
2019-03-05T20:13:45.690Z,4.60
2019-03-05T20:16:18.948Z,4.50
2019-03-05T20:18:52.255Z,4.40
2019-03-05T20:21:25.600Z,4.30
2019-03-05T20:23:59.006Z,4.20
2019-03-05T20:26:33.689Z,4.20
2019-03-05T20:29:07.209Z,4.10
2019-03-05T20:31:40.526Z,4.10
2019-03-05T20:34:13.847Z,4.00
2019-03-05T20:36:47.077Z,4.10
2019-03-05T20:39:20.457Z,4.10
2019-03-05T20:41:53.839Z,4.10
2019-03-05T20:44:28.242Z,4.10
2019-03-05T20:47:02.635Z,4.10
2019-03-05T20:49:36.036Z,4.20
2019-03-05T20:52:10.260Z,4.20
2019-03-05T20:54:43.658Z,4.10
2019-03-05T20:57:16.979Z,4.10
2019-03-05T20:59:50.364Z,4.00
2019-03-05T21:02:23.707Z,4.00
2019-03-05T21:04:57.109Z,4.00
2019-03-05T21:07:30.345Z,4.00
2019-03-05T21:10:03.732Z,4.00
2019-03-05T21:12:37.399Z,4.00
2019-03-05T21:15:18.679Z,4.00
2019-03-05T21:17:55.517Z,4.00
2019-03-05T21:20:28.844Z,3.90
2019-03-05T21:23:02.250Z,4.00
2019-03-05T21:25:35.849Z,4.00
2019-03-05T21:28:11.713Z,4.00
2019-03-05T21:30:44.993Z,3.90
2019-03-05T21:33:18.356Z,3.90
2019-03-05T21:35:51.676Z,3.80
2019-03-05T21:38:24.925Z,3.90
2019-03-05T21:40:58.347Z,3.90
2019-03-05T21:43:31.739Z,4.00
2019-03-05T21:46:15.469Z,3.90
2019-03-05T21:48:48.692Z,3.90
2019-03-05T21:51:22.189Z,4.00
2019-03-05T21:53:55.552Z,3.90
2019-03-05T21:56:28.913Z,3.80
2019-03-05T21:59:02.150Z,3.80
2019-03-05T22:01:35.463Z,3.80
2019-03-05T22:04:08.824Z,3.80
2019-03-05T22:06:44.130Z,3.80
2019-03-05T22:09:17.373Z,3.80
2019-03-05T22:11:51.792Z,3.80
2019-03-05T22:14:25.036Z,3.80
2019-03-05T22:16:59.730Z,3.80
2019-03-05T22:19:33.094Z,3.80
2019-03-05T22:22:06.449Z,3.90
2019-03-05T22:24:40.196Z,3.80
2019-03-05T22:27:14.700Z,3.80
2019-03-05T22:29:49.446Z,3.80
2019-03-05T22:32:22.715Z,3.80
2019-03-05T22:34:55.975Z,3.70
2019-03-05T22:37:41.218Z,3.70
2019-03-05T22:40:15.111Z,3.70
2019-03-05T22:42:48.424Z,3.70
2019-03-05T22:45:24.702Z,3.70
2019-03-05T22:47:58.307Z,3.70
2019-03-05T22:50:36.197Z,3.60
2019-03-05T22:53:09.628Z,3.70
2019-03-05T22:55:43.006Z,3.60
2019-03-05T22:58:16.408Z,3.60
2019-03-05T23:01:10.621Z,3.50
2019-03-05T23:03:47.283Z,3.40
2019-03-05T23:09:16.986Z,3.40
2019-03-05T23:11:50.466Z,3.40
2019-03-05T23:14:23.937Z,3.40
2019-03-05T23:16:58.887Z,3.40
2019-03-05T23:19:32.761Z,3.40
2019-03-05T23:22:06.130Z,3.30
2019-03-05T23:24:40.426Z,3.30
2019-03-05T23:27:34.468Z,3.40
2019-03-05T23:30:17.755Z,3.40
2019-03-05T23:32:53.011Z,3.30
2019-03-05T23:35:26.283Z,3.30
2019-03-05T23:38:07.694Z,3.30
2019-03-05T23:40:41.458Z,3.30
2019-03-05T23:43:15.996Z,3.30
2019-03-05T23:48:43.008Z,3.30
2019-03-05T23:51:16.268Z,3.40
2019-03-05T23:53:49.571Z,3.30
2019-03-05T23:56:26.936Z,3.40
2019-03-05T23:59:00.335Z,3.40
